Time;durP1;ratioP1;P1;durP2;ratioP2;P2;SDS_P1;SDS_P2;PMS_P1;PMS_P2;Temp;Humidity;BMP_temperature;BMP_pressure;BME280_temperature;BME280_humidity;BME280_pressure;Samples;Min_cycle;Max_cycle;Signal;HPM_P1;HPM_P2
2023/04/02 00:01:46;;;;;;;;;;;7.80;99.90;;;;;;5047074;28;19992;-69
2023/04/02 00:04:14;;;;;;;;;;;7.90;99.90;;;;;;5046961;28;19984;-69
2023/04/02 00:06:44;;;;;;;;;;;7.80;99.90;;;;;;5046662;28;19988;-69
2023/04/02 00:09:21;;;;;;;;;;;7.90;99.90;;;;;;5047438;28;20164;-69
2023/04/02 00:11:53;;;;;;;;;;;7.90;99.90;;;;;;5047341;28;19927;-70
2023/04/02 00:14:22;;;;;;;;;;;7.90;99.90;;;;;;5046862;28;19944;-70
2023/04/02 00:16:58;;;;;;;;;;;7.90;99.90;;;;;;5043851;28;19993;-69
2023/04/02 00:19:28;;;;;;;;;;;7.90;99.90;;;;;;5046985;28;20227;-70
2023/04/02 00:21:55;;;;;;;;;;;7.90;99.90;;;;;;5046874;28;19988;-69
2023/04/02 00:24:22;;;;;;;;;;;7.90;99.90;;;;;;5046738;28;19988;-70
2023/04/02 00:26:51;;;;;;;;;;;7.90;99.90;;;;;;5046303;28;20120;-70
2023/04/02 00:29:19;;;;;;;;;;;7.90;99.90;;;;;;5046591;28;19928;-69
2023/04/02 00:31:47;;;;;;;;;;;7.90;99.90;;;;;;5046923;28;19975;-69
2023/04/02 00:34:16;;;;;;;;;;;7.90;99.90;;;;;;5046763;28;19925;-69
2023/04/02 00:36:43;;;;;;;;;;;7.90;99.90;;;;;;5046052;28;19928;-70
2023/04/02 00:39:13;;;;;;;;;;;7.90;99.90;;;;;;5046466;28;19963;-68
2023/04/02 00:41:45;;;;;;;;;;;7.90;99.90;;;;;;5046710;28;19928;-69
2023/04/02 00:44:14;;;;;;;;;;;7.90;99.90;;;;;;5045853;28;19921;-69
2023/04/02 00:46:45;;;;;;;;;;;7.90;99.90;;;;;;5045831;28;19961;-69
2023/04/02 00:49:16;;;;;;;;;;;7.90;99.90;;;;;;5046260;28;19963;-70
2023/04/02 00:51:46;;;;;;;;;;;7.80;99.90;;;;;;5046158;28;19984;-70
2023/04/02 00:54:14;;;;;;;;;;;7.80;99.90;;;;;;5046409;28;19988;-70
2023/04/02 00:56:43;;;;;;;;;;;7.80;99.90;;;;;;5045831;28;19925;-70
2023/04/02 00:59:17;;;;;;;;;;;7.80;99.90;;;;;;5046456;28;19922;-70
2023/04/02 01:01:44;;;;;;;;;;;7.80;99.90;;;;;;5045556;28;19984;-69
2023/04/02 01:04:26;;;;;;;;;;;7.80;99.90;;;;;;5046134;28;19927;-69
2023/04/02 01:06:53;;;;;;;;;;;7.80;99.90;;;;;;5045763;28;20201;-69
2023/04/02 01:09:24;;;;;;;;;;;7.80;99.90;;;;;;5046014;28;20264;-68
2023/04/02 01:11:57;;;;;;;;;;;7.70;99.90;;;;;;5045753;28;19924;-70
2023/04/02 01:14:33;;;;;;;;;;;7.70;99.90;;;;;;5046113;28;19928;-70
2023/04/02 01:17:03;;;;;;;;;;;7.70;99.90;;;;;;5045108;28;19921;-70
2023/04/02 01:19:42;;;;;;;;;;;7.70;99.90;;;;;;5045922;28;20243;-70
2023/04/02 01:22:10;;;;;;;;;;;7.70;99.90;;;;;;5045874;28;19925;-69
2023/04/02 01:24:37;;;;;;;;;;;7.70;99.90;;;;;;5045891;28;19921;-69
2023/04/02 01:27:05;;;;;;;;;;;7.60;99.90;;;;;;5045022;28;19921;-70
2023/04/02 01:29:34;;;;;;;;;;;7.60;99.90;;;;;;5045842;28;19928;-70
2023/04/02 01:32:02;;;;;;;;;;;7.60;99.90;;;;;;5045559;28;20209;-69
2023/04/02 01:34:30;;;;;;;;;;;7.50;99.90;;;;;;5045871;28;19920;-69
2023/04/02 01:37:09;;;;;;;;;;;7.60;99.90;;;;;;5045038;28;19921;-69
2023/04/02 01:39:46;;;;;;;;;;;7.50;99.90;;;;;;5045683;28;19921;-70
2023/04/02 01:42:16;;;;;;;;;;;7.50;99.90;;;;;;5045686;28;19931;-68
2023/04/02 01:44:46;;;;;;;;;;;7.60;99.90;;;;;;5045113;28;20236;-69
2023/04/02 01:47:14;;;;;;;;;;;7.60;99.90;;;;;;5045020;28;19988;-69
2023/04/02 01:49:42;;;;;;;;;;;7.50;99.90;;;;;;5045585;28;19921;-70
2023/04/02 01:52:09;;;;;;;;;;;7.60;99.90;;;;;;5045397;28;20112;-70
2023/04/02 01:54:36;;;;;;;;;;;7.60;99.90;;;;;;5044241;28;19957;-70
2023/04/02 01:57:03;;;;;;;;;;;7.50;99.90;;;;;;5045058;28;19921;-69
2023/04/02 01:59:32;;;;;;;;;;;7.50;99.90;;;;;;5045387;28;19983;-68
2023/04/02 02:02:14;;;;;;;;;;;7.50;99.90;;;;;;5037102;28;19979;-69
2023/04/02 02:04:40;;;;;;;;;;;7.50;99.90;;;;;;5045010;28;19921;-69
2023/04/02 02:07:14;;;;;;;;;;;7.50;99.90;;;;;;5044967;28;19984;-69
2023/04/02 02:09:41;;;;;;;;;;;7.50;99.90;;;;;;5045185;28;19922;-69
2023/04/02 02:12:12;;;;;;;;;;;7.40;99.90;;;;;;5044959;28;19921;-69
2023/04/02 02:14:38;;;;;;;;;;;7.50;99.90;;;;;;5045038;28;20159;-69
2023/04/02 02:17:12;;;;;;;;;;;7.40;99.90;;;;;;5044029;28;19984;-70
2023/04/02 02:19:43;;;;;;;;;;;7.50;99.90;;;;;;5045064;28;19921;-69
2023/04/02 02:22:11;;;;;;;;;;;7.50;99.90;;;;;;5044876;28;19980;-71
2023/04/02 02:24:38;;;;;;;;;;;7.40;99.90;;;;;;5044507;28;19984;-69
2023/04/02 02:27:08;;;;;;;;;;;7.40;99.90;;;;;;5044364;28;19948;-69
2023/04/02 02:29:37;;;;;;;;;;;7.40;99.90;;;;;;5044931;28;19956;-69
2023/04/02 02:32:04;;;;;;;;;;;7.50;99.90;;;;;;5044616;28;19963;-70
2023/04/02 02:34:33;;;;;;;;;;;7.50;99.90;;;;;;5044360;28;19996;-69
2023/04/02 02:37:05;;;;;;;;;;;7.50;99.90;;;;;;5042197;28;20230;-70
2023/04/02 02:39:35;;;;;;;;;;;7.40;99.90;;;;;;5044226;28;20116;-69
2023/04/02 02:42:04;;;;;;;;;;;7.40;99.90;;;;;;5044559;28;19928;-69
2023/04/02 02:44:33;;;;;;;;;;;7.40;99.90;;;;;;5044543;28;19921;-69
2023/04/02 02:47:01;;;;;;;;;;;7.40;99.90;;;;;;5043704;28;19993;-69
2023/04/02 02:49:30;;;;;;;;;;;7.50;99.90;;;;;;5044253;28;19988;-69
2023/04/02 02:51:58;;;;;;;;;;;7.50;99.90;;;;;;5044311;28;19927;-70
2023/04/02 02:54:27;;;;;;;;;;;7.50;99.90;;;;;;5043994;28;19927;-69
2023/04/02 02:56:56;;;;;;;;;;;7.40;99.90;;;;;;5043801;28;19992;-69
2023/04/02 02:59:23;;;;;;;;;;;7.50;99.90;;;;;;5044191;28;19943;-70
2023/04/02 03:02:01;;;;;;;;;;;7.40;99.90;;;;;;5033992;28;19921;-69
2023/04/02 03:04:29;;;;;;;;;;;7.50;99.90;;;;;;5044080;28;19952;-69
2023/04/02 03:06:56;;;;;;;;;;;7.40;99.90;;;;;;5042989;28;19928;-69
2023/04/02 03:09:31;;;;;;;;;;;7.50;99.90;;;;;;5044104;28;20108;-70
2023/04/02 03:12:01;;;;;;;;;;;7.40;99.90;;;;;;5043799;28;19921;-70
2023/04/02 03:14:31;;;;;;;;;;;7.40;99.90;;;;;;5044019;28;19992;-69
2023/04/02 03:17:00;;;;;;;;;;;7.40;99.90;;;;;;5043627;28;19989;-70
2023/04/02 03:19:30;;;;;;;;;;;7.40;99.90;;;;;;5044107;28;19999;-71
2023/04/02 03:22:01;;;;;;;;;;;7.40;99.90;;;;;;5043930;28;20023;-69
2023/04/02 03:24:34;;;;;;;;;;;7.40;99.90;;;;;;5043828;28;19921;-70
2023/04/02 03:27:03;;;;;;;;;;;7.40;99.90;;;;;;5043018;28;19928;-70
2023/04/02 03:29:32;;;;;;;;;;;7.40;99.90;;;;;;5043436;28;19964;-69
2023/04/02 03:32:00;;;;;;;;;;;7.40;99.90;;;;;;5043793;28;19921;-69
2023/04/02 03:34:29;;;;;;;;;;;7.40;99.90;;;;;;5043510;28;19921;-70
2023/04/02 03:36:58;;;;;;;;;;;7.40;99.90;;;;;;5042985;28;19984;-70
2023/04/02 03:39:30;;;;;;;;;;;7.40;99.90;;;;;;5043729;28;19921;-69
2023/04/02 03:42:02;;;;;;;;;;;7.50;99.90;;;;;;5043945;28;19983;-69
2023/04/02 03:44:31;;;;;;;;;;;7.50;99.90;;;;;;5043786;28;19980;-69
2023/04/02 03:47:00;;;;;;;;;;;7.40;99.90;;;;;;5042652;28;19927;-70
2023/04/02 03:49:30;;;;;;;;;;;7.50;99.90;;;;;;5043564;28;19928;-70
2023/04/02 03:51:59;;;;;;;;;;;7.40;99.90;;;;;;5043755;28;19988;-70
2023/04/02 03:54:25;;;;;;;;;;;7.40;99.90;;;;;;5043740;28;20116;-69
2023/04/02 03:56:53;;;;;;;;;;;7.40;99.90;;;;;;5042939;28;19984;-69
2023/04/02 03:59:24;;;;;;;;;;;7.40;99.90;;;;;;5043441;28;19921;-69
2023/04/02 04:01:53;;;;;;;;;;;7.40;99.90;;;;;;5040414;28;19992;-69
2023/04/02 04:04:20;;;;;;;;;;;7.40;99.90;;;;;;5043145;28;20193;-70
2023/04/02 04:06:49;;;;;;;;;;;7.40;99.90;;;;;;5043050;28;19928;-69
2023/04/02 04:09:18;;;;;;;;;;;7.40;99.90;;;;;;5043308;28;20260;-69
2023/04/02 04:11:46;;;;;;;;;;;7.40;99.90;;;;;;5043642;28;19943;-69
2023/04/02 04:14:15;;;;;;;;;;;7.30;99.90;;;;;;5049040;28;19920;-69
2023/04/02 04:16:47;;;;;;;;;;;7.40;99.90;;;;;;5057025;28;20383;-69
2023/04/02 04:19:17;;;;;;;;;;;7.40;99.90;;;;;;5026294;28;19992;-69
2023/04/02 04:21:44;;;;;;;;;;;7.40;99.90;;;;;;5027328;28;19921;-70
2023/04/02 04:24:16;;;;;;;;;;;7.40;99.90;;;;;;5027512;28;19929;-69
2023/04/02 04:26:48;;;;;;;;;;;7.40;99.90;;;;;;5026405;28;19921;-70
2023/04/02 04:29:19;;;;;;;;;;;7.40;99.90;;;;;;5026998;28;19988;-70
2023/04/02 04:31:49;;;;;;;;;;;7.40;99.90;;;;;;5027095;28;19921;-69
2023/04/02 04:34:18;;;;;;;;;;;7.40;99.90;;;;;;5027160;28;20132;-69
2023/04/02 04:36:46;;;;;;;;;;;7.40;99.90;;;;;;5041141;28;20304;-69
2023/04/02 04:39:15;;;;;;;;;;;7.40;99.90;;;;;;5046677;28;19928;-70
2023/04/02 04:41:42;;;;;;;;;;;7.40;99.90;;;;;;5046580;28;19920;-69
2023/04/02 04:44:14;;;;;;;;;;;7.40;99.90;;;;;;5046684;28;19927;-69
2023/04/02 04:46:42;;;;;;;;;;;7.40;99.90;;;;;;5046401;28;19921;-69
2023/04/02 04:49:12;;;;;;;;;;;7.40;99.90;;;;;;5046306;28;20232;-69
2023/04/02 04:51:42;;;;;;;;;;;7.40;99.90;;;;;;5046339;28;20204;-69
2023/04/02 04:54:10;;;;;;;;;;;7.50;99.90;;;;;;5046309;28;20452;-69
2023/04/02 04:56:37;;;;;;;;;;;7.40;99.90;;;;;;5045902;28;19921;-69
2023/04/02 04:59:06;;;;;;;;;;;7.40;99.90;;;;;;5046360;28;20259;-69
2023/04/02 05:01:42;;;;;;;;;;;7.40;99.90;;;;;;5043447;28;20167;-69
2023/04/02 05:04:15;;;;;;;;;;;7.40;99.90;;;;;;5046223;28;20128;-69
2023/04/02 05:06:43;;;;;;;;;;;7.40;99.90;;;;;;5045875;28;19925;-69
2023/04/02 05:09:14;;;;;;;;;;;7.50;99.90;;;;;;5046458;28;19921;-69
2023/04/02 05:11:43;;;;;;;;;;;7.40;99.90;;;;;;5046253;28;20112;-70
2023/04/02 05:14:15;;;;;;;;;;;7.50;99.90;;;;;;5046026;28;19992;-69
2023/04/02 05:16:45;;;;;;;;;;;7.40;99.90;;;;;;5042380;28;19928;-69
2023/04/02 05:19:16;;;;;;;;;;;7.40;99.90;;;;;;5026219;28;19944;-70
2023/04/02 05:21:44;;;;;;;;;;;7.40;99.90;;;;;;5026332;28;19929;-69
2023/04/02 05:24:28;;;;;;;;;;;7.40;99.90;;;;;;5025885;28;19960;-70
2023/04/02 05:26:57;;;;;;;;;;;7.40;99.90;;;;;;5025291;28;19922;-70
2023/04/02 05:29:26;;;;;;;;;;;7.40;99.90;;;;;;5025855;28;20268;-69
2023/04/02 05:31:55;;;;;;;;;;;7.50;99.90;;;;;;5035290;28;19921;-69
2023/04/02 05:34:25;;;;;;;;;;;7.50;99.90;;;;;;5045407;28;19987;-70
2023/04/02 05:36:52;;;;;;;;;;;7.50;99.90;;;;;;5045240;28;19993;-69
2023/04/02 05:39:21;;;;;;;;;;;7.50;99.90;;;;;;5045552;28;19921;-69
2023/04/02 05:41:48;;;;;;;;;;;7.50;99.90;;;;;;5045851;28;19963;-69
2023/04/02 05:44:18;;;;;;;;;;;7.50;99.90;;;;;;5045388;28;19953;-69
2023/04/02 05:46:46;;;;;;;;;;;7.50;99.90;;;;;;5044847;28;19992;-69
2023/04/02 05:49:18;;;;;;;;;;;7.50;99.90;;;;;;5045397;28;19927;-69
2023/04/02 05:51:49;;;;;;;;;;;7.40;99.90;;;;;;5045230;28;20001;-69
2023/04/02 05:54:20;;;;;;;;;;;7.40;99.90;;;;;;5045283;28;20112;-69
2023/04/02 05:56:48;;;;;;;;;;;7.40;99.90;;;;;;5044781;28;19959;-69
2023/04/02 05:59:18;;;;;;;;;;;7.40;99.90;;;;;;5045157;28;19928;-69
2023/04/02 06:01:57;;;;;;;;;;;7.50;99.90;;;;;;5042576;28;20288;-69
2023/04/02 06:04:26;;;;;;;;;;;7.50;99.90;;;;;;5045137;28;19948;-69
2023/04/02 06:07:03;;;;;;;;;;;7.60;99.90;;;;;;5029375;28;19988;-69
2023/04/02 06:09:38;;;;;;;;;;;7.60;99.90;;;;;;5025335;28;19995;-70
2023/04/02 06:12:12;;;;;;;;;;;7.60;99.90;;;;;;5024983;28;20271;-70
2023/04/02 06:14:56;;;;;;;;;;;7.60;99.90;;;;;;5022073;28;20112;-69
2023/04/02 06:17:23;;;;;;;;;;;7.60;99.90;;;;;;5024735;28;19956;-66
2023/04/02 06:19:50;;;;;;;;;;;7.70;99.90;;;;;;5025080;28;20221;-69
2023/04/02 06:22:24;;;;;;;;;;;7.70;99.90;;;;;;5025203;28;19921;-69
2023/04/02 06:24:54;;;;;;;;;;;7.70;99.90;;;;;;5024927;28;19928;-69
2023/04/02 06:27:22;;;;;;;;;;;7.70;99.90;;;;;;5024204;28;20157;-69
2023/04/02 06:29:51;;;;;;;;;;;7.70;99.90;;;;;;5024894;28;19984;-70
2023/04/02 06:32:19;;;;;;;;;;;7.60;99.90;;;;;;5024692;28;19964;-69
2023/04/02 06:34:45;;;;;;;;;;;7.60;99.90;;;;;;5039634;28;19943;-69
2023/04/02 06:37:16;;;;;;;;;;;7.70;99.90;;;;;;5043633;28;19992;-71
2023/04/02 06:39:44;;;;;;;;;;;7.70;99.90;;;;;;5044296;28;19921;-70
2023/04/02 06:42:13;;;;;;;;;;;7.70;99.90;;;;;;5044025;28;19921;-70
2023/04/02 06:44:39;;;;;;;;;;;7.70;99.90;;;;;;5044213;28;19921;-70
2023/04/02 06:47:10;;;;;;;;;;;7.70;99.90;;;;;;5043797;28;19992;-70
2023/04/02 06:49:39;;;;;;;;;;;7.70;99.90;;;;;;5044071;28;19925;-70
2023/04/02 06:52:11;;;;;;;;;;;7.80;99.90;;;;;;5044053;28;19928;-68
2023/04/02 06:54:38;;;;;;;;;;;7.80;99.90;;;;;;5043630;28;19921;-69
2023/04/02 06:57:07;;;;;;;;;;;7.90;99.90;;;;;;5043725;28;20251;-70
2023/04/02 06:59:33;;;;;;;;;;;7.90;99.90;;;;;;5044132;28;19979;-70
2023/04/02 07:02:02;;;;;;;;;;;7.90;99.90;;;;;;5038878;28;19921;-69
2023/04/02 07:04:29;;;;;;;;;;;8.00;99.90;;;;;;5044068;28;19967;-69
2023/04/02 07:06:56;;;;;;;;;;;7.90;99.90;;;;;;5040223;28;19929;-71
2023/04/02 07:09:24;;;;;;;;;;;8.00;99.90;;;;;;5043296;28;20270;-70
2023/04/02 07:11:51;;;;;;;;;;;8.00;99.90;;;;;;5043957;28;19952;-69
2023/04/02 07:14:19;;;;;;;;;;;8.00;99.90;;;;;;5043447;28;19921;-69
2023/04/02 07:16:48;;;;;;;;;;;8.10;99.90;;;;;;5042627;28;19929;-69
2023/04/02 07:19:19;;;;;;;;;;;8.10;99.90;;;;;;5043975;28;19921;-70
2023/04/02 07:21:45;;;;;;;;;;;8.10;99.90;;;;;;5043695;28;20000;-70
2023/04/02 07:24:12;;;;;;;;;;;8.00;99.90;;;;;;5043698;28;20169;-70
2023/04/02 07:26:39;;;;;;;;;;;8.10;99.90;;;;;;5043212;28;19983;-69
2023/04/02 07:29:06;;;;;;;;;;;8.10;99.90;;;;;;5043797;28;19956;-70
2023/04/02 07:31:34;;;;;;;;;;;8.10;99.90;;;;;;5043870;28;20001;-70
2023/04/02 07:34:01;;;;;;;;;;;8.10;99.90;;;;;;5043592;28;19967;-70
2023/04/02 07:36:28;;;;;;;;;;;8.10;99.90;;;;;;5042720;28;19921;-69
2023/04/02 07:38:55;;;;;;;;;;;8.10;99.90;;;;;;5043409;28;19980;-69
2023/04/02 07:41:22;;;;;;;;;;;8.10;99.90;;;;;;5043693;28;20001;-69
2023/04/02 07:43:49;;;;;;;;;;;8.10;99.90;;;;;;5043513;28;19951;-70
2023/04/02 07:46:17;;;;;;;;;;;8.20;99.90;;;;;;5042797;28;19929;-69
2023/04/02 07:48:46;;;;;;;;;;;8.20;99.90;;;;;;5043606;28;19921;-70
2023/04/02 07:51:17;;;;;;;;;;;8.30;99.90;;;;;;5043411;28;19981;-70
2023/04/02 07:53:44;;;;;;;;;;;8.30;99.90;;;;;;5045212;28;19963;-70
2023/04/02 07:56:13;;;;;;;;;;;8.30;99.90;;;;;;5046245;28;20261;-71
2023/04/02 07:58:40;;;;;;;;;;;8.30;99.90;;;;;;5047563;28;19921;-70
2023/04/02 08:01:15;;;;;;;;;;;8.40;99.90;;;;;;5047611;28;19925;-70
2023/04/02 08:03:42;;;;;;;;;;;8.40;99.90;;;;;;5047704;28;19921;-70
2023/04/02 08:06:10;;;;;;;;;;;8.50;99.90;;;;;;5047033;28;19980;-70
2023/04/02 08:08:37;;;;;;;;;;;8.50;99.90;;;;;;5047114;28;19964;-70
2023/04/02 08:11:04;;;;;;;;;;;8.50;99.90;;;;;;5047291;28;19921;-70
2023/04/02 08:13:31;;;;;;;;;;;8.50;99.90;;;;;;5047376;28;19988;-73
2023/04/02 08:16:03;;;;;;;;;;;8.50;99.90;;;;;;5045796;28;19929;-70
2023/04/02 08:18:30;;;;;;;;;;;8.50;99.90;;;;;;5047099;28;19929;-68
2023/04/02 08:20:57;;;;;;;;;;;8.50;99.90;;;;;;5046292;28;19992;-68
2023/04/02 08:23:25;;;;;;;;;;;8.50;99.90;;;;;;5046608;28;19921;-69
2023/04/02 08:25:52;;;;;;;;;;;8.50;99.90;;;;;;5046552;28;19944;-68
2023/04/02 08:28:20;;;;;;;;;;;8.60;99.90;;;;;;5045893;28;19921;-68
2023/04/02 08:30:47;;;;;;;;;;;8.60;99.90;;;;;;5046279;28;20255;-69
2023/04/02 08:33:14;;;;;;;;;;;8.60;99.90;;;;;;5045930;28;19991;-69
2023/04/02 08:35:41;;;;;;;;;;;8.50;99.90;;;;;;5045599;28;19931;-70
2023/04/02 08:38:08;;;;;;;;;;;8.60;99.90;;;;;;5047856;28;19921;-69
2023/04/02 08:40:37;;;;;;;;;;;8.50;99.90;;;;;;5066339;28;19921;-68
2023/04/02 08:43:15;;;;;;;;;;;8.50;99.90;;;;;;5065980;28;19987;-68
2023/04/02 08:45:47;;;;;;;;;;;8.50;99.90;;;;;;5065457;28;19959;-68
2023/04/02 08:48:14;;;;;;;;;;;8.50;99.90;;;;;;5065458;28;19992;-67
2023/04/02 08:50:42;;;;;;;;;;;8.50;99.90;;;;;;5047826;28;19953;-68
2023/04/02 08:53:12;;;;;;;;;;;8.50;99.90;;;;;;5045970;28;19996;-68
2023/04/02 08:55:46;;;;;;;;;;;8.60;99.90;;;;;;5045530;28;19988;-69
2023/04/02 08:58:19;;;;;;;;;;;8.60;99.90;;;;;;5045498;28;19951;-70
2023/04/02 09:00:48;;;;;;;;;;;8.60;99.90;;;;;;5044881;28;19921;-67
2023/04/02 09:03:17;;;;;;;;;;;8.60;99.90;;;;;;5044458;28;19952;-67
2023/04/02 09:05:51;;;;;;;;;;;8.60;99.90;;;;;;5041560;28;19929;-68
2023/04/02 09:08:19;;;;;;;;;;;8.70;99.90;;;;;;5045672;28;19921;-68
2023/04/02 09:10:50;;;;;;;;;;;8.60;99.90;;;;;;5045720;28;19928;-67
2023/04/02 09:13:21;;;;;;;;;;;8.70;99.90;;;;;;5045630;28;20165;-68
2023/04/02 09:15:52;;;;;;;;;;;8.70;99.90;;;;;;5044046;28;19988;-68
2023/04/02 09:18:19;;;;;;;;;;;8.70;99.90;;;;;;5045385;28;19921;-69
2023/04/02 09:20:48;;;;;;;;;;;8.70;99.90;;;;;;5045139;28;20213;-69
2023/04/02 09:23:16;;;;;;;;;;;8.80;99.90;;;;;;5045382;28;19927;-69
2023/04/02 09:25:44;;;;;;;;;;;8.80;99.90;;;;;;5044879;28;20248;-69
2023/04/02 09:28:13;;;;;;;;;;;8.70;99.90;;;;;;5044857;28;19951;-67
2023/04/02 09:30:51;;;;;;;;;;;8.40;99.90;;;;;;5044877;28;20004;-67
2023/04/02 09:33:18;;;;;;;;;;;8.40;99.90;;;;;;5045210;28;19927;-68
2023/04/02 09:35:54;;;;;;;;;;;8.30;99.90;;;;;;5044764;28;19963;-67
2023/04/02 09:38:21;;;;;;;;;;;8.30;99.90;;;;;;5044773;28;19927;-67
2023/04/02 09:40:49;;;;;;;;;;;8.30;99.90;;;;;;5045144;28;20044;-68
2023/04/02 09:43:18;;;;;;;;;;;8.30;99.90;;;;;;5045255;28;19980;-68
2023/04/02 09:45:54;;;;;;;;;;;8.20;99.90;;;;;;5044181;28;19935;-67
2023/04/02 09:48:25;;;;;;;;;;;8.30;99.90;;;;;;5044565;28;19951;-67
2023/04/02 09:51:02;;;;;;;;;;;8.20;99.90;;;;;;5025900;28;20005;-68
2023/04/02 09:53:31;;;;;;;;;;;8.20;99.90;;;;;;5024838;28;19992;-67
2023/04/02 09:56:07;;;;;;;;;;;8.20;99.90;;;;;;5025737;28;20016;-68
2023/04/02 09:58:35;;;;;;;;;;;8.20;99.90;;;;;;5044461;28;19984;-66
2023/04/02 10:01:02;;;;;;;;;;;8.20;99.90;;;;;;5043551;28;19927;-68
2023/04/02 10:03:31;;;;;;;;;;;8.10;99.90;;;;;;5038301;28;19992;-68
2023/04/02 10:06:09;;;;;;;;;;;8.20;99.90;;;;;;5043971;28;19932;-67
2023/04/02 10:08:36;;;;;;;;;;;8.10;99.90;;;;;;5043977;28;20240;-68
2023/04/02 10:11:03;;;;;;;;;;;8.10;99.90;;;;;;5024548;28;20292;-68
2023/04/02 10:13:33;;;;;;;;;;;8.10;99.90;;;;;;5024209;28;20259;-68
2023/04/02 10:16:03;;;;;;;;;;;8.00;99.90;;;;;;5023136;28;20268;-68
2023/04/02 10:18:35;;;;;;;;;;;8.10;99.90;;;;;;5024100;28;19922;-67
2023/04/02 10:21:03;;;;;;;;;;;8.10;99.90;;;;;;5024346;28;20304;-67
2023/04/02 10:23:31;;;;;;;;;;;8.00;99.90;;;;;;5024283;28;19956;-67
2023/04/02 10:26:03;;;;;;;;;;;8.00;99.90;;;;;;5022968;28;19993;-68
2023/04/02 10:28:37;;;;;;;;;;;8.00;99.90;;;;;;5024162;28;19984;-67
2023/04/02 10:31:08;;;;;;;;;;;7.90;99.90;;;;;;5024423;28;19922;-68
2023/04/02 10:33:37;;;;;;;;;;;7.90;99.90;;;;;;5024359;28;19989;-67
2023/04/02 10:36:08;;;;;;;;;;;7.80;99.90;;;;;;5023726;28;19963;-68
2023/04/02 10:38:41;;;;;;;;;;;7.80;99.90;;;;;;5023281;28;19921;-67
2023/04/02 10:41:14;;;;;;;;;;;7.80;99.90;;;;;;5024215;28;19921;-69
2023/04/02 10:43:49;;;;;;;;;;;7.80;99.90;;;;;;5023805;28;19922;-68
2023/04/02 10:46:22;;;;;;;;;;;7.90;99.90;;;;;;5022545;28;19984;-69
2023/04/02 10:48:52;;;;;;;;;;;7.80;99.90;;;;;;5023803;28;19981;-68
2023/04/02 10:51:28;;;;;;;;;;;7.80;99.90;;;;;;5024092;28;20023;-68
2023/04/02 10:53:58;;;;;;;;;;;7.80;99.90;;;;;;5023507;28;19981;-69
2023/04/02 10:56:25;;;;;;;;;;;7.60;99.90;;;;;;5022251;28;19980;-67
2023/04/02 10:58:54;;;;;;;;;;;7.60;99.90;;;;;;5023768;28;20148;-68
2023/04/02 11:01:26;;;;;;;;;;;7.50;99.90;;;;;;5024010;28;19984;-68
2023/04/02 11:03:57;;;;;;;;;;;7.50;99.90;;;;;;5023351;28;19929;-68
2023/04/02 11:06:25;;;;;;;;;;;7.40;99.90;;;;;;5023050;28;19929;-67
2023/04/02 11:08:53;;;;;;;;;;;7.50;99.90;;;;;;5023255;28;19988;-67
2023/04/02 11:11:21;;;;;;;;;;;7.50;99.90;;;;;;5023663;28;19984;-68
2023/04/02 11:13:52;;;;;;;;;;;7.50;99.90;;;;;;5023304;28;19929;-68
2023/04/02 11:16:19;;;;;;;;;;;7.50;99.90;;;;;;5023115;28;19989;-67
2023/04/02 11:19:00;;;;;;;;;;;7.50;99.90;;;;;;5023611;28;19957;-68
2023/04/02 11:21:42;;;;;;;;;;;7.40;99.90;;;;;;5023084;28;19928;-69
2023/04/02 11:24:23;;;;;;;;;;;7.40;99.90;;;;;;5023162;28;19992;-68
2023/04/02 11:26:51;;;;;;;;;;;7.40;99.90;;;;;;5022717;28;19989;-68
2023/04/02 11:29:20;;;;;;;;;;;7.40;99.90;;;;;;5023085;28;19925;-68
2023/04/02 11:31:47;;;;;;;;;;;7.40;99.90;;;;;;5023329;28;19984;-69
2023/04/02 11:34:14;;;;;;;;;;;7.30;99.90;;;;;;5034890;28;19921;-68
2023/04/02 11:37:02;;;;;;;;;;;7.30;99.90;;;;;;5041956;28;19921;-69
2023/04/02 11:39:45;;;;;;;;;;;7.30;99.90;;;;;;5042839;28;19932;-68
2023/04/02 11:42:23;;;;;;;;;;;7.20;99.90;;;;;;5042846;28;20000;-68
2023/04/02 11:44:50;;;;;;;;;;;7.20;99.90;;;;;;5042451;28;20132;-67
2023/04/02 11:47:20;;;;;;;;;;;7.10;99.90;;;;;;5034963;28;20077;-68
2023/04/02 11:49:57;;;;;;;;;;;7.10;99.90;;;;;;5021590;28;19984;-68
2023/04/02 11:52:26;;;;;;;;;;;7.10;99.90;;;;;;5021197;28;19929;-68
2023/04/02 11:55:04;;;;;;;;;;;7.20;99.90;;;;;;5019753;28;19992;-67
2023/04/02 11:57:46;;;;;;;;;;;7.20;99.90;;;;;;5015438;28;19985;-69
2023/04/02 12:00:21;;;;;;;;;;;7.20;99.90;;;;;;5023080;28;19961;-68
2023/04/02 12:03:03;;;;;;;;;;;7.30;99.90;;;;;;5020644;28;19980;-69
2023/04/02 12:05:35;;;;;;;;;;;7.30;99.90;;;;;;5016911;28;19976;-69
2023/04/02 12:08:09;;;;;;;;;;;7.20;99.90;;;;;;5022263;28;20304;-69
2023/04/02 12:10:50;;;;;;;;;;;7.30;99.90;;;;;;5022853;28;20288;-68
2023/04/02 12:13:18;;;;;;;;;;;7.30;99.90;;;;;;5022997;28;19922;-69
2023/04/02 12:15:45;;;;;;;;;;;7.40;99.90;;;;;;5021498;28;19957;-68
2023/04/02 12:18:13;;;;;;;;;;;7.40;99.90;;;;;;5022511;28;19971;-69
2023/04/02 12:20:43;;;;;;;;;;;7.40;99.90;;;;;;5022679;28;19956;-69
2023/04/02 12:23:15;;;;;;;;;;;7.30;99.90;;;;;;5022294;28;19928;-68
2023/04/02 12:25:45;;;;;;;;;;;7.40;99.90;;;;;;5022532;28;20090;-69
2023/04/02 12:28:16;;;;;;;;;;;7.40;99.90;;;;;;5022289;28;19921;-68
2023/04/02 12:30:43;;;;;;;;;;;7.30;99.90;;;;;;5023070;28;19956;-68
2023/04/02 12:33:16;;;;;;;;;;;7.30;99.90;;;;;;5023169;28;19988;-68
2023/04/02 12:35:43;;;;;;;;;;;7.30;99.90;;;;;;5022860;28;20221;-68
2023/04/02 12:38:21;;;;;;;;;;;7.30;99.90;;;;;;5022984;28;19985;-68
2023/04/02 12:40:52;;;;;;;;;;;7.30;99.90;;;;;;5026209;28;19921;-68
2023/04/02 12:43:22;;;;;;;;;;;7.30;99.90;;;;;;5026802;28;19989;-69
2023/04/02 12:45:51;;;;;;;;;;;7.30;99.90;;;;;;5026007;28;19925;-68
2023/04/02 12:48:18;;;;;;;;;;;7.40;99.90;;;;;;5026168;28;19928;-74
2023/04/02 12:50:44;;;;;;;;;;;7.30;99.90;;;;;;5026172;28;20116;-68
2023/04/02 12:53:18;;;;;;;;;;;7.20;99.90;;;;;;5026279;28;19928;-68
2023/04/02 12:55:48;;;;;;;;;;;7.20;99.90;;;;;;5025366;28;19929;-69
2023/04/02 12:58:25;;;;;;;;;;;7.20;99.90;;;;;;5017020;28;19921;-68
2023/04/02 13:00:51;;;;;;;;;;;7.10;99.90;;;;;;5026142;28;20204;-70
2023/04/02 13:03:19;;;;;;;;;;;7.00;99.90;;;;;;5022878;28;19928;-68
2023/04/02 13:05:48;;;;;;;;;;;6.90;99.90;;;;;;5023191;28;19921;-69
2023/04/02 13:08:17;;;;;;;;;;;7.00;99.90;;;;;;5006098;28;20160;-68
2023/04/02 13:10:44;;;;;;;;;;;7.00;99.90;;;;;;5005998;28;20304;-69
2023/04/02 13:13:14;;;;;;;;;;;7.00;99.90;;;;;;5020534;28;19964;-69
2023/04/02 13:15:42;;;;;;;;;;;7.00;99.90;;;;;;5023202;28;20475;-68
2023/04/02 13:18:18;;;;;;;;;;;7.00;99.90;;;;;;5025013;28;19921;-68
2023/04/02 13:20:54;;;;;;;;;;;7.10;99.90;;;;;;5025708;28;19928;-68
2023/04/02 13:23:30;;;;;;;;;;;7.10;99.90;;;;;;5024967;28;19960;-68
2023/04/02 13:25:58;;;;;;;;;;;7.00;99.90;;;;;;5042040;28;20267;-68
2023/04/02 13:28:26;;;;;;;;;;;7.00;99.90;;;;;;5044646;28;19960;-69
2023/04/02 13:30:53;;;;;;;;;;;7.00;99.90;;;;;;5044994;28;19929;-69
2023/04/02 13:33:19;;;;;;;;;;;6.80;99.90;;;;;;5025896;28;19992;-68
2023/04/02 13:35:46;;;;;;;;;;;6.70;99.90;;;;;;5024271;28;19926;-70
2023/04/02 13:38:13;;;;;;;;;;;6.70;99.90;;;;;;5024946;28;19996;-68
2023/04/02 13:40:40;;;;;;;;;;;6.60;99.90;;;;;;5025209;28;19992;-68
2023/04/02 13:43:07;;;;;;;;;;;6.60;99.90;;;;;;5024834;28;19928;-69
2023/04/02 13:45:37;;;;;;;;;;;6.60;99.90;;;;;;5025596;28;20347;-68
2023/04/02 13:48:04;;;;;;;;;;;6.60;99.90;;;;;;5023456;28;19955;-69
2023/04/02 13:50:31;;;;;;;;;;;6.60;99.90;;;;;;5023307;28;19991;-68
2023/04/02 13:52:59;;;;;;;;;;;6.60;99.90;;;;;;5023461;28;19988;-68
2023/04/02 13:55:27;;;;;;;;;;;6.60;99.90;;;;;;5002153;28;19992;-69
2023/04/02 13:57:55;;;;;;;;;;;6.60;99.90;;;;;;5017403;28;20146;-68
2023/04/02 14:00:25;;;;;;;;;;;6.80;99.90;;;;;;5021353;28;19928;-68
2023/04/02 14:02:55;;;;;;;;;;;6.80;99.90;;;;;;5024066;28;19921;-69
2023/04/02 14:05:28;;;;;;;;;;;6.70;99.90;;;;;;5015806;28;19929;-68
2023/04/02 14:08:00;;;;;;;;;;;6.80;99.90;;;;;;5023408;28;19955;-69
2023/04/02 14:10:35;;;;;;;;;;;6.80;99.90;;;;;;5004571;28;20191;-71
2023/04/02 14:13:07;;;;;;;;;;;6.80;99.90;;;;;;5005144;28;20087;-70
2023/04/02 14:15:43;;;;;;;;;;;6.70;99.90;;;;;;5010795;28;19972;-71
2023/04/02 14:18:24;;;;;;;;;;;6.70;99.90;;;;;;5023592;28;19927;-69
2023/04/02 14:20:55;;;;;;;;;;;6.60;99.90;;;;;;5023606;28;19968;-69
2023/04/02 14:23:40;;;;;;;;;;;6.50;99.90;;;;;;5024110;28;20059;-69
2023/04/02 14:26:11;;;;;;;;;;;6.50;99.90;;;;;;5014623;28;20184;-69
2023/04/02 14:28:45;;;;;;;;;;;6.50;99.90;;;;;;5024445;28;19988;-70
2023/04/02 14:31:19;;;;;;;;;;;6.60;99.90;;;;;;5022201;28;20209;-69
2023/04/02 14:33:51;;;;;;;;;;;6.60;99.90;;;;;;5023377;28;19928;-72
2023/04/02 14:36:21;;;;;;;;;;;6.40;99.90;;;;;;5014464;28;19949;-72
2023/04/02 14:38:54;;;;;;;;;;;6.40;99.90;;;;;;5022087;28;19933;-69
2023/04/02 14:41:25;;;;;;;;;;;6.30;99.90;;;;;;5022806;28;20145;-70
2023/04/02 14:43:53;;;;;;;;;;;6.30;99.90;;;;;;5016067;28;19928;-69
2023/04/02 14:46:24;;;;;;;;;;;6.30;99.90;;;;;;5022279;28;19922;-69
2023/04/02 14:48:54;;;;;;;;;;;6.30;99.90;;;;;;5023424;28;19929;-69